Time;durP1;ratioP1;P1;durP2;ratioP2;P2;SDS_P1;SDS_P2;PMS_P1;PMS_P2;Temp;Humidity;BMP_temperature;BMP_pressure;BME280_temperature;BME280_humidity;BME280_pressure;Samples;Min_cycle;Max_cycle;Signal;HPM_P1;HPM_P2
2021/10/17 00:00:56;;;;;;;4.38;2.67;;;;;;;;;;4915242;29;20428;-37
2021/10/17 00:03:21;;;;;;;8.35;2.65;;;;;;;;;;4915153;29;20052;-37
2021/10/17 00:05:47;;;;;;;3.28;2.70;;;;;;;;;;4915143;29;20024;-37
2021/10/17 00:08:12;;;;;;;3.25;2.30;;;;;;;;;;4914666;29;20040;-37
2021/10/17 00:10:38;;;;;;;7.45;2.72;;;;;;;;;;4914599;29;20064;-37
2021/10/17 00:13:05;;;;;;;4.68;3.15;;;;;;;;;;4915018;29;20048;-37
2021/10/17 00:15:31;;;;;;;4.35;2.45;;;;;;;;;;4914974;29;20024;-37
2021/10/17 00:17:56;;;;;;;4.53;2.92;;;;;;;;;;4915328;29;20047;-37
2021/10/17 00:20:23;;;;;;;5.03;2.45;;;;;;;;;;4914948;29;20021;-37
2021/10/17 00:22:49;;;;;;;3.47;2.53;;;;;;;;;;4915012;29;20043;-37
2021/10/17 00:25:14;;;;;;;7.18;2.72;;;;;;;;;;4915067;29;20032;-37
2021/10/17 00:27:40;;;;;;;5.95;3.20;;;;;;;;;;4913931;29;20035;-37
2021/10/17 00:30:08;;;;;;;5.10;3.63;;;;;;;;;;4913741;29;20020;-37
2021/10/17 00:32:35;;;;;;;4.28;3.22;;;;;;;;;;4914596;29;20059;-37
2021/10/17 00:35:02;;;;;;;5.15;2.97;;;;;;;;;;4913641;29;20039;-37
2021/10/17 00:37:31;;;;;;;3.42;2.28;;;;;;;;;;4914690;29;20048;-37
2021/10/17 00:39:57;;;;;;;4.78;2.97;;;;;;;;;;4914829;29;20039;-37
2021/10/17 00:42:22;;;;;;;3.63;2.40;;;;;;;;;;4914780;29;20028;-37
2021/10/17 00:44:58;;;;;;;3.95;2.30;;;;;;;;;;4915099;29;20568;-37
2021/10/17 00:47:24;;;;;;;6.80;3.53;;;;;;;;;;4929402;29;20075;-38
2021/10/17 00:49:50;;;;;;;13.45;3.67;;;;;;;;;;4913832;29;20554;-37
2021/10/17 00:52:15;;;;;;;5.63;3.33;;;;;;;;;;4913559;29;20055;-37
2021/10/17 00:54:41;;;;;;;5.45;2.92;;;;;;;;;;4914800;29;20028;-37
2021/10/17 00:57:07;;;;;;;7.82;3.42;;;;;;;;;;4913431;29;20050;-37
2021/10/17 00:59:32;;;;;;;5.88;3.20;;;;;;;;;;4914654;29;20471;-37
2021/10/17 01:01:57;;;;;;;5.22;3.00;;;;;;;;;;4914809;29;20051;-37
2021/10/17 01:04:23;;;;;;;6.57;3.20;;;;;;;;;;4914549;29;20099;-37
2021/10/17 01:06:48;;;;;;;4.35;3.45;;;;;;;;;;4929271;29;20495;-37
2021/10/17 01:09:13;;;;;;;4.18;3.03;;;;;;;;;;4929265;29;20356;-37
2021/10/17 01:11:42;;;;;;;5.40;3.20;;;;;;;;;;4913211;29;20075;-37
2021/10/17 01:14:14;;;;;;;5.15;3.03;;;;;;;;;;4913408;29;20029;-37
2021/10/17 01:16:40;;;;;;;4.00;3.03;;;;;;;;;;4914363;29;20036;-37
2021/10/17 01:19:05;;;;;;;3.95;2.97;;;;;;;;;;4913313;29;20092;-37
2021/10/17 01:21:32;;;;;;;6.40;3.28;;;;;;;;;;4915850;29;20040;-38
2021/10/17 01:23:57;;;;;;;5.25;3.45;;;;;;;;;;4916644;29;20123;-37
2021/10/17 01:26:23;;;;;;;4.70;3.10;;;;;;;;;;4916509;29;20119;-38
2021/10/17 01:28:48;;;;;;;4.88;4.05;;;;;;;;;;4916520;29;20031;-37
2021/10/17 01:31:14;;;;;;;7.03;3.67;;;;;;;;;;4932290;29;20039;-37
2021/10/17 01:33:39;;;;;;;6.10;3.80;;;;;;;;;;4916300;29;20472;-37
2021/10/17 01:36:05;;;;;;;4.65;2.92;;;;;;;;;;4917650;29;20115;-37
2021/10/17 01:38:30;;;;;;;8.98;4.07;;;;;;;;;;4916225;29;20028;-37
2021/10/17 01:40:56;;;;;;;4.93;3.58;;;;;;;;;;4932183;29;20036;-37
2021/10/17 01:43:21;;;;;;;4.72;2.72;;;;;;;;;;4916179;29;20122;-37
2021/10/17 01:46:06;;;;;;;5.43;3.40;;;;;;;;;;4916231;29;20032;-37
2021/10/17 01:48:36;;;;;;;4.78;2.92;;;;;;;;;;4916122;29;20406;-37
2021/10/17 01:51:02;;;;;;;5.38;3.13;;;;;;;;;;4917457;29;20027;-37
2021/10/17 01:53:29;;;;;;;5.45;3.67;;;;;;;;;;4915998;29;20044;-42
2021/10/17 01:55:56;;;;;;;3.88;3.10;;;;;;;;;;4917346;29;20511;-37
2021/10/17 01:58:24;;;;;;;5.15;3.40;;;;;;;;;;4931836;29;20039;-37
2021/10/17 02:00:49;;;;;;;7.53;4.03;;;;;;;;;;4915997;29;20032;-37
2021/10/17 02:03:16;;;;;;;5.50;3.42;;;;;;;;;;4915971;29;20047;-38
2021/10/17 02:05:48;;;;;;;3.95;2.85;;;;;;;;;;4915968;29;20020;-37
2021/10/17 02:08:15;;;;;;;4.90;4.15;;;;;;;;;;4915782;29;20389;-37
2021/10/17 02:10:41;;;;;;;6.50;3.83;;;;;;;;;;4915848;29;20020;-37
2021/10/17 02:13:09;;;;;;;8.50;2.67;;;;;;;;;;4915762;29;20064;-37
2021/10/17 02:15:35;;;;;;;5.68;3.65;;;;;;;;;;4916874;29;20044;-38
2021/10/17 02:18:00;;;;;;;8.38;3.63;;;;;;;;;;4915765;29;20074;-37
2021/10/17 02:20:34;;;;;;;5.53;3.38;;;;;;;;;;4931325;29;20107;-37
2021/10/17 02:23:04;;;;;;;5.80;3.13;;;;;;;;;;4915698;29;20028;-37
2021/10/17 02:25:30;;;;;;;6.03;3.42;;;;;;;;;;4915433;29;20039;-37
2021/10/17 02:27:57;;;;;;;5.47;3.65;;;;;;;;;;4915456;29;20500;-37
2021/10/17 02:30:22;;;;;;;5.00;3.10;;;;;;;;;;4915512;29;20025;-37
2021/10/17 02:32:59;;;;;;;6.95;2.70;;;;;;;;;;4914383;29;20064;-37
2021/10/17 02:35:30;;;;;;;4.18;2.80;;;;;;;;;;4915301;29;20547;-37
2021/10/17 02:37:55;;;;;;;5.63;3.08;;;;;;;;;;4931221;29;20039;-37
2021/10/17 02:40:21;;;;;;;6.22;3.75;;;;;;;;;;4916581;29;20100;-37
2021/10/17 02:42:46;;;;;;;5.18;3.40;;;;;;;;;;4915126;29;20028;-37
2021/10/17 02:45:12;;;;;;;4.75;2.92;;;;;;;;;;4915311;29;20024;-37
2021/10/17 02:47:38;;;;;;;5.25;3.22;;;;;;;;;;4915088;29;20047;-37
2021/10/17 02:50:05;;;;;;;3.38;2.80;;;;;;;;;;4930874;29;20020;-37
2021/10/17 02:52:31;;;;;;;4.32;2.70;;;;;;;;;;4914976;29;20575;-38
2021/10/17 02:54:57;;;;;;;5.75;3.25;;;;;;;;;;4915040;29;20032;-37
2021/10/17 02:57:22;;;;;;;5.47;3.35;;;;;;;;;;4914809;29;20484;-37
2021/10/17 02:59:48;;;;;;;6.10;2.92;;;;;;;;;;4916409;29;20016;-37
2021/10/17 03:02:14;;;;;;;6.05;3.05;;;;;;;;;;4930703;29;20058;-37
2021/10/17 03:04:40;;;;;;;4.53;2.88;;;;;;;;;;4930563;29;20020;-37
2021/10/17 03:07:05;;;;;;;5.45;3.20;;;;;;;;;;4914771;29;20463;-37
2021/10/17 03:09:38;;;;;;;4.85;2.80;;;;;;;;;;4930558;29;20534;-37
2021/10/17 03:12:04;;;;;;;3.85;2.60;;;;;;;;;;4914684;29;20043;-37
2021/10/17 03:14:31;;;;;;;6.80;3.17;;;;;;;;;;4930430;29;20028;-37
2021/10/17 03:16:57;;;;;;;5.18;3.47;;;;;;;;;;4914721;29;20050;-37
2021/10/17 03:19:22;;;;;;;8.10;2.70;;;;;;;;;;4914407;29;20024;-37
2021/10/17 03:21:47;;;;;;;6.00;3.30;;;;;;;;;;4914585;29;20036;-37
2021/10/17 03:24:13;;;;;;;5.07;3.38;;;;;;;;;;4914529;29;20118;-37
2021/10/17 03:26:41;;;;;;;3.67;2.88;;;;;;;;;;4914333;29;20472;-37
2021/10/17 03:29:06;;;;;;;8.63;3.10;;;;;;;;;;4914399;29;20034;-37
2021/10/17 03:31:34;;;;;;;6.07;3.28;;;;;;;;;;4915645;29;20056;-37
2021/10/17 03:33:59;;;;;;;8.50;3.95;;;;;;;;;;4914220;29;20047;-37
2021/10/17 03:36:25;;;;;;;5.18;3.40;;;;;;;;;;4914284;29;20024;-38
2021/10/17 03:38:52;;;;;;;4.45;3.10;;;;;;;;;;4914190;29;20079;-37
2021/10/17 03:41:24;;;;;;;4.93;2.85;;;;;;;;;;4914237;29;20028;-38
2021/10/17 03:43:49;;;;;;;4.93;2.72;;;;;;;;;;4914068;29;20047;-37
2021/10/17 03:46:16;;;;;;;6.97;3.53;;;;;;;;;;4914158;29;20024;-37
2021/10/17 03:48:44;;;;;;;4.43;2.50;;;;;;;;;;4930000;29;20087;-37
2021/10/17 03:51:16;;;;;;;5.10;2.80;;;;;;;;;;4914148;29;20391;-37
2021/10/17 03:53:41;;;;;;;4.85;3.40;;;;;;;;;;4913942;29;20040;-37
2021/10/17 03:56:09;;;;;;;6.57;2.97;;;;;;;;;;4929844;29;20080;-37
2021/10/17 03:58:34;;;;;;;4.40;3.22;;;;;;;;;;4929788;29;20495;-38
2021/10/17 04:01:00;;;;;;;7.88;2.88;;;;;;;;;;4913995;29;20024;-40
2021/10/17 04:03:27;;;;;;;4.57;2.95;;;;;;;;;;4913924;29;20040;-37
2021/10/17 04:05:54;;;;;;;3.10;2.55;;;;;;;;;;4914047;29;20028;-37
2021/10/17 04:08:20;;;;;;;4.38;3.55;;;;;;;;;;4913714;29;20395;-37
2021/10/17 04:10:46;;;;;;;7.57;3.33;;;;;;;;;;4929846;29;20065;-37
2021/10/17 04:13:12;;;;;;;6.13;3.42;;;;;;;;;;4913845;29;20032;-37
2021/10/17 04:15:37;;;;;;;5.82;4.15;;;;;;;;;;4913749;29;20069;-37
2021/10/17 04:18:06;;;;;;;4.88;3.22;;;;;;;;;;4929712;29;20032;-37
2021/10/17 04:20:32;;;;;;;3.88;2.78;;;;;;;;;;4913662;29;20043;-37
2021/10/17 04:22:59;;;;;;;7.07;3.90;;;;;;;;;;4913837;29;20653;-37
2021/10/17 04:25:26;;;;;;;5.63;2.85;;;;;;;;;;4913640;29;20028;-37
2021/10/17 04:27:51;;;;;;;4.53;2.83;;;;;;;;;;4913753;29;20035;-37
2021/10/17 04:30:17;;;;;;;4.68;3.35;;;;;;;;;;4913836;29;20016;-37
2021/10/17 04:32:44;;;;;;;5.22;3.13;;;;;;;;;;4913445;29;20551;-37
2021/10/17 04:35:09;;;;;;;6.57;3.80;;;;;;;;;;4913774;29;20032;-37
2021/10/17 04:37:35;;;;;;;4.03;3.03;;;;;;;;;;4913488;29;20095;-37
2021/10/17 04:40:01;;;;;;;4.25;3.13;;;;;;;;;;4913714;29;20023;-37
2021/10/17 04:42:27;;;;;;;5.22;3.35;;;;;;;;;;4913627;29;20024;-37
2021/10/17 04:44:53;;;;;;;5.05;3.08;;;;;;;;;;4913540;29;20111;-37
2021/10/17 04:47:18;;;;;;;4.60;3.50;;;;;;;;;;4913529;29;20092;-37
2021/10/17 04:49:44;;;;;;;4.30;3.22;;;;;;;;;;4913597;29;20031;-37
2021/10/17 04:52:09;;;;;;;5.72;3.30;;;;;;;;;;4929196;29;20385;-37
2021/10/17 04:54:35;;;;;;;4.68;2.90;;;;;;;;;;4929304;29;20107;-37
2021/10/17 04:57:00;;;;;;;5.13;3.42;;;;;;;;;;4917011;29;20452;-37
2021/10/17 04:59:26;;;;;;;4.03;2.70;;;;;;;;;;4917008;29;20036;-37
2021/10/17 05:01:56;;;;;;;5.70;3.03;;;;;;;;;;4932935;29;20040;-37
2021/10/17 05:04:23;;;;;;;5.70;3.28;;;;;;;;;;4916949;29;20044;-37
2021/10/17 05:06:51;;;;;;;4.85;3.30;;;;;;;;;;4917039;29;20042;-38
2021/10/17 05:09:16;;;;;;;5.68;2.80;;;;;;;;;;4918177;29;20076;-37
2021/10/17 05:11:42;;;;;;;4.13;2.67;;;;;;;;;;4916798;29;20033;-37
2021/10/17 05:14:08;;;;;;;7.10;3.63;;;;;;;;;;4916864;29;20464;-37
2021/10/17 05:16:34;;;;;;;7.75;2.95;;;;;;;;;;4918260;29;20053;-37
2021/10/17 05:19:00;;;;;;;8.18;2.95;;;;;;;;;;4916789;29;20175;-37
2021/10/17 05:21:27;;;;;;;5.93;3.53;;;;;;;;;;4932479;29;20395;-37
2021/10/17 05:23:52;;;;;;;5.72;3.13;;;;;;;;;;4932628;29;20039;-37
2021/10/17 05:26:19;;;;;;;5.72;3.25;;;;;;;;;;4932522;29;20484;-37
2021/10/17 05:28:45;;;;;;;3.92;3.13;;;;;;;;;;4916473;29;20024;-37
2021/10/17 05:31:11;;;;;;;5.78;2.88;;;;;;;;;;4916531;29;20065;-38
2021/10/17 05:33:37;;;;;;;3.80;2.70;;;;;;;;;;4917811;29;20068;-37
2021/10/17 05:36:03;;;;;;;4.75;3.10;;;;;;;;;;4918010;29;20035;-37
2021/10/17 05:38:28;;;;;;;7.75;2.65;;;;;;;;;;4916363;29;20032;-37
2021/10/17 05:40:54;;;;;;;4.07;2.67;;;;;;;;;;4916352;29;20510;-37
2021/10/17 05:43:20;;;;;;;4.88;2.85;;;;;;;;;;4932264;29;20024;-37
2021/10/17 05:45:45;;;;;;;3.92;2.85;;;;;;;;;;4917500;29;20067;-37
2021/10/17 05:48:11;;;;;;;6.55;3.35;;;;;;;;;;4916192;29;20028;-37
2021/10/17 05:50:37;;;;;;;6.18;3.20;;;;;;;;;;4932053;29;20119;-37
2021/10/17 05:53:03;;;;;;;3.42;2.65;;;;;;;;;;4916160;29;20156;-37
2021/10/17 05:55:29;;;;;;;6.38;3.10;;;;;;;;;;4916096;29;20097;-37
2021/10/17 05:57:55;;;;;;;5.85;3.10;;;;;;;;;;4917372;29;20028;-37
2021/10/17 06:00:22;;;;;;;5.40;2.95;;;;;;;;;;4915933;29;20471;-37
2021/10/17 06:02:53;;;;;;;7.30;3.40;;;;;;;;;;4916011;29;20032;-37
2021/10/17 06:05:19;;;;;;;5.25;3.03;;;;;;;;;;4915997;29;20380;-37
2021/10/17 06:07:44;;;;;;;5.18;2.83;;;;;;;;;;4917045;29;20028;-37
2021/10/17 06:10:12;;;;;;;4.60;2.88;;;;;;;;;;4915890;29;20047;-37
2021/10/17 06:12:39;;;;;;;6.75;3.53;;;;;;;;;;4915688;29;20036;-37
2021/10/17 06:15:05;;;;;;;4.30;3.05;;;;;;;;;;4915979;29;20069;-37
2021/10/17 06:17:31;;;;;;;5.28;3.17;;;;;;;;;;4915523;29;20040;-37
2021/10/17 06:19:56;;;;;;;5.18;2.83;;;;;;;;;;4915804;29;20036;-37
2021/10/17 06:22:22;;;;;;;3.80;2.78;;;;;;;;;;4899959;29;20060;-37
2021/10/17 06:24:48;;;;;;;5.88;3.45;;;;;;;;;;4915538;29;20451;-37
2021/10/17 06:27:13;;;;;;;6.68;3.42;;;;;;;;;;4916922;29;20031;-37
2021/10/17 06:29:39;;;;;;;6.38;4.13;;;;;;;;;;4915417;29;20039;-37
2021/10/17 06:32:05;;;;;;;5.57;3.35;;;;;;;;;;4915280;29;20063;-37
2021/10/17 06:34:34;;;;;;;7.53;4.28;;;;;;;;;;4915403;29;20092;-37
2021/10/17 06:36:59;;;;;;;6.97;3.03;;;;;;;;;;4915279;29;20036;-37
2021/10/17 06:39:25;;;;;;;7.18;3.75;;;;;;;;;;4916515;29;20158;-37
2021/10/17 06:41:50;;;;;;;6.07;3.28;;;;;;;;;;4915316;29;20028;-37
2021/10/17 06:44:23;;;;;;;6.75;3.33;;;;;;;;;;4915190;29;20399;-37
2021/10/17 06:46:54;;;;;;;5.45;3.45;;;;;;;;;;4915419;29;20047;-37
2021/10/17 06:49:20;;;;;;;5.65;3.20;;;;;;;;;;4915226;29;20035;-37
2021/10/17 06:51:47;;;;;;;5.32;3.55;;;;;;;;;;4915018;29;20032;-37
2021/10/17 06:54:12;;;;;;;5.57;3.00;;;;;;;;;;4930854;29;20399;-37
2021/10/17 06:56:38;;;;;;;4.05;3.10;;;;;;;;;;4916287;29;20027;-37
2021/10/17 06:59:04;;;;;;;7.82;3.10;;;;;;;;;;4914955;29;20451;-37
2021/10/17 07:01:33;;;;;;;6.03;3.75;;;;;;;;;;4914915;29;20531;-37
2021/10/17 07:03:59;;;;;;;4.50;3.10;;;;;;;;;;4914953;29;20067;-37
2021/10/17 07:06:35;;;;;;;5.90;3.15;;;;;;;;;;4916247;29;20119;-38
2021/10/17 07:09:07;;;;;;;4.97;3.50;;;;;;;;;;4916142;29;20032;-37
2021/10/17 07:11:53;;;;;;;6.13;4.25;;;;;;;;;;4915549;29;20412;-37
2021/10/17 07:14:30;;;;;;;4.75;2.97;;;;;;;;;;4914715;29;20122;-37
2021/10/17 07:17:13;;;;;;;4.88;3.35;;;;;;;;;;4914715;29;20107;-37
2021/10/17 07:19:39;;;;;;;4.32;3.05;;;;;;;;;;4914072;29;20055;-37
2021/10/17 07:22:05;;;;;;;6.40;3.20;;;;;;;;;;4898917;29;20024;-37
2021/10/17 07:24:33;;;;;;;4.47;3.00;;;;;;;;;;4914443;29;20067;-37
2021/10/17 07:26:59;;;;;;;5.40;3.65;;;;;;;;;;4930268;29;20132;-37
2021/10/17 07:29:25;;;;;;;4.20;2.80;;;;;;;;;;4915655;29;20454;-37
2021/10/17 07:31:51;;;;;;;4.18;2.55;;;;;;;;;;4914179;29;20165;-37
2021/10/17 07:34:16;;;;;;;6.72;3.00;;;;;;;;;;4914454;29;20392;-37
2021/10/17 07:36:42;;;;;;;5.38;3.05;;;;;;;;;;4914252;29;20471;-37
2021/10/17 07:39:14;;;;;;;5.55;2.78;;;;;;;;;;4914506;29;20055;-37
2021/10/17 07:41:48;;;;;;;7.30;3.72;;;;;;;;;;4914158;29;20036;-37
2021/10/17 07:44:15;;;;;;;4.28;3.35;;;;;;;;;;4914351;29;20038;-37
2021/10/17 07:46:54;;;;;;;6.50;3.40;;;;;;;;;;4914259;29;20020;-37
2021/10/17 07:49:19;;;;;;;5.53;3.22;;;;;;;;;;4914182;29;20035;-37
2021/10/17 07:51:45;;;;;;;4.07;3.05;;;;;;;;;;4915405;29;20142;-37
2021/10/17 07:54:11;;;;;;;6.60;3.10;;;;;;;;;;4929868;29;20040;-37
2021/10/17 07:56:39;;;;;;;3.85;3.25;;;;;;;;;;4913985;29;20020;-37
2021/10/17 07:59:05;;;;;;;6.43;2.90;;;;;;;;;;4914081;29;20368;-37
2021/10/17 08:01:31;;;;;;;6.07;2.97;;;;;;;;;;4913968;29;20435;-37
2021/10/17 08:04:15;;;;;;;5.43;2.55;;;;;;;;;;4915494;29;20043;-38
2021/10/17 08:06:55;;;;;;;4.30;2.28;;;;;;;;;;4914072;29;20067;-37
2021/10/17 08:09:21;;;;;;;3.15;2.17;;;;;;;;;;4929741;29;20480;-37
2021/10/17 08:11:46;;;;;;;4.47;3.13;;;;;;;;;;4913895;29;20535;-37
2021/10/17 08:14:13;;;;;;;3.65;2.35;;;;;;;;;;4913888;29;20044;-37
2021/10/17 08:16:44;;;;;;;2.80;2.10;;;;;;;;;;4929512;29;20123;-37
2021/10/17 08:19:10;;;;;;;6.95;2.85;;;;;;;;;;4913809;29;20463;-37
2021/10/17 08:21:35;;;;;;;3.42;2.47;;;;;;;;;;4913670;29;20030;-37
2021/10/17 08:24:09;;;;;;;3.60;1.95;;;;;;;;;;4913811;29;20038;-37
2021/10/17 08:26:40;;;;;;;3.58;1.95;;;;;;;;;;4913599;29;20493;-36
2021/10/17 08:29:08;;;;;;;6.63;3.40;;;;;;;;;;4913817;29;20059;-37
2021/10/17 08:31:34;;;;;;;5.43;3.30;;;;;;;;;;4932380;29;20072;-37
2021/10/17 08:34:05;;;;;;;4.50;2.88;;;;;;;;;;4917672;29;20054;-37
2021/10/17 08:36:32;;;;;;;4.15;2.83;;;;;;;;;;4933304;29;20028;-37
2021/10/17 08:39:00;;;;;;;4.22;3.22;;;;;;;;;;4917450;29;20036;-37
2021/10/17 08:41:37;;;;;;;4.57;3.03;;;;;;;;;;4917418;29;20139;-37
2021/10/17 08:44:11;;;;;;;3.28;2.38;;;;;;;;;;4917382;29;20044;-37
2021/10/17 08:46:46;;;;;;;2.95;2.13;;;;;;;;;;4917246;29;20067;-37
2021/10/17 08:49:14;;;;;;;3.15;1.92;;;;;;;;;;4917318;29;20032;-37
2021/10/17 08:51:40;;;;;;;4.72;2.60;;;;;;;;;;4917307;29;20027;-37
2021/10/17 08:54:07;;;;;;;5.07;2.05;;;;;;;;;;4917101;29;20574;-37
2021/10/17 08:56:42;;;;;;;3.72;2.60;;;;;;;;;;4917103;29;20072;-37
2021/10/17 08:59:10;;;;;;;3.78;2.58;;;;;;;;;;4917079;29;20032;-37
2021/10/17 09:01:42;;;;;;;8.30;3.22;;;;;;;;;;4917098;29;20058;-37
2021/10/17 09:04:10;;;;;;;3.03;1.90;;;;;;;;;;4918342;29;20036;-37
2021/10/17 09:06:46;;;;;;;4.18;2.83;;;;;;;;;;4916965;29;20032;-37
2021/10/17 09:09:15;;;;;;;3.63;2.63;;;;;;;;;;4932762;29;20042;-37
2021/10/17 09:11:44;;;;;;;2.70;1.80;;;;;;;;;;4917035;29;20480;-37
2021/10/17 09:14:12;;;;;;;2.45;1.75;;;;;;;;;;4918370;29;20132;-36
2021/10/17 09:16:41;;;;;;;6.97;2.28;;;;;;;;;;4917963;29;20531;-37
2021/10/17 09:19:08;;;;;;;4.22;2.10;;;;;;;;;;4918083;29;20039;-37
2021/10/17 09:21:33;;;;;;;2.42;1.90;;;;;;;;;;4917930;29;20080;-37
2021/10/17 09:23:59;;;;;;;2.80;1.95;;;;;;;;;;4918328;29;20040;-38
2021/10/17 09:26:24;;;;;;;2.95;1.45;;;;;;;;;;4917949;29;20028;-37
2021/10/17 09:28:50;;;;;;;4.65;1.90;;;;;;;;;;4917713;29;20635;-37
2021/10/17 09:31:17;;;;;;;1.70;1.52;;;;;;;;;;4917812;29;20035;-38
2021/10/17 09:33:49;;;;;;;3.80;2.10;;;;;;;;;;4917977;29;20087;-36
2021/10/17 09:36:16;;;;;;;3.72;1.77;;;;;;;;;;4916559;29;20417;-36
2021/10/17 09:39:31;;;;;;;2.83;1.70;;;;;;;;;;4896647;29;20452;-37
2021/10/17 09:42:36;;;;;;;2.53;1.73;;;;;;;;;;4895881;29;20486;-37
2021/10/17 09:45:36;;;;;;;2.05;1.70;;;;;;;;;;4910750;29;20067;-37
2021/10/17 09:48:01;;;;;;;4.65;2.05;;;;;;;;;;4914302;29;20040;-37
2021/10/17 09:50:27;;;;;;;2.80;1.88;;;;;;;;;;4917465;29;20024;-37
2021/10/17 09:53:03;;;;;;;2.63;1.85;;;;;;;;;;4917433;29;20082;-36
2021/10/17 09:55:29;;;;;;;4.32;1.98;;;;;;;;;;4917601;29;20094;-37
2021/10/17 09:57:55;;;;;;;2.78;2.03;;;;;;;;;;4916162;29;20024;-37
2021/10/17 10:00:20;;;;;;;1.77;1.63;;;;;;;;;;4917295;29;20040;-37
2021/10/17 10:02:46;;;;;;;1.83;1.42;;;;;;;;;;4917341;29;20029;-37
2021/10/17 10:05:14;;;;;;;1.55;1.30;;;;;;;;;;4917490;29;20063;-37
2021/10/17 10:07:42;;;;;;;2.88;2.00;;;;;;;;;;4917100;29;20023;-41
2021/10/17 10:10:08;;;;;;;2.33;1.40;;;;;;;;;;4917281;29;20036;-37
2021/10/17 10:12:34;;;;;;;2.65;1.83;;;;;;;;;;4916932;29;20039;-37
2021/10/17 10:15:00;;;;;;;2.55;1.48;;;;;;;;;;4917206;29;20028;-37
2021/10/17 10:17:27;;;;;;;2.30;1.88;;;;;;;;;;4916013;29;20035;-37
2021/10/17 10:19:54;;;;;;;1.95;1.52;;;;;;;;;;4917051;29;20059;-37
2021/10/17 10:22:20;;;;;;;2.08;1.65;;;;;;;;;;4917068;29;20024;-37
2021/10/17 10:24:48;;;;;;;3.95;1.88;;;;;;;;;;4915501;29;20036;-37
2021/10/17 10:27:14;;;;;;;2.92;1.83;;;;;;;;;;4915627;29;20024;-37
2021/10/17 10:29:40;;;;;;;2.03;1.13;;;;;;;;;;4916718;29;20095;-37
2021/10/17 10:32:07;;;;;;;3.03;1.65;;;;;;;;;;4916293;29;20072;-37
2021/10/17 10:34:32;;;;;;;1.73;1.27;;;;;;;;;;4915946;29;20500;-36
2021/10/17 10:37:11;;;;;;;2.25;1.42;;;;;;;;;;4914540;29;20137;-37
2021/10/17 10:39:36;;;;;;;2.22;1.40;;;;;;;;;;4914678;29;20369;-36
2021/10/17 10:42:16;;;;;;;1.85;1.73;;;;;;;;;;4915908;29;20353;-37
2021/10/17 10:44:42;;;;;;;2.90;1.80;;;;;;;;;;4915618;29;20064;-37
2021/10/17 10:47:21;;;;;;;2.75;1.80;;;;;;;;;;4915522;29;20027;-37
2021/10/17 10:49:47;;;;;;;2.00;1.38;;;;;;;;;;4915473;29;20104;-37
2021/10/17 10:52:25;;;;;;;2.63;1.77;;;;;;;;;;4915416;29;20058;-36
2021/10/17 10:54:51;;;;;;;1.40;1.30;;;;;;;;;;4913889;29;20479;-37
2021/10/17 10:57:21;;;;;;;6.40;2.40;;;;;;;;;;4915651;29;20031;-37
2021/10/17 11:00:09;;;;;;;2.35;1.63;;;;;;;;;;4915685;29;20048;-37
2021/10/17 11:02:35;;;;;;;2.72;1.60;;;;;;;;;;4905362;29;20075;-37
2021/10/17 11:05:15;;;;;;;3.75;1.52;;;;;;;;;;4915352;29;20055;-38
2021/10/17 11:07:40;;;;;;;4.00;1.27;;;;;;;;;;4915373;29;20059;-37
2021/10/17 11:10:27;;;;;;;1.42;1.08;;;;;;;;;;4915305;29;20035;-37
2021/10/17 11:12:57;;;;;;;2.15;1.63;;;;;;;;;;4913858;29;20074;-37
2021/10/17 11:15:26;;;;;;;1.23;1.13;;;;;;;;;;4915048;29;20026;-37
2021/10/17 11:17:54;;;;;;;1.38;1.17;;;;;;;;;;4915324;29;20032;-37
2021/10/17 11:20:20;;;;;;;1.92;1.30;;;;;;;;;;4915148;29;20026;-37
2021/10/17 11:22:47;;;;;;;1.98;1.40;;;;;;;;;;4913639;29;20795;-37
2021/10/17 11:25:14;;;;;;;3.08;1.40;;;;;;;;;;4915222;29;20353;-37
2021/10/17 11:27:39;;;;;;;1.52;1.20;;;;;;;;;;4915084;29;20028;-37
2021/10/17 11:30:05;;;;;;;2.13;1.52;;;;;;;;;;4915045;29;20024;-41
2021/10/17 11:32:32;;;;;;;2.70;1.70;;;;;;;;;;4873312;29;1233617;-37
2021/10/17 11:34:57;;;;;;;1.75;1.58;;;;;;;;;;4915672;29;20044;-37
2021/10/17 11:37:23;;;;;;;1.73;1.27;;;;;;;;;;4915567;29;20110;-37
2021/10/17 11:39:53;;;;;;;4.80;1.45;;;;;;;;;;4915531;29;20491;-37
2021/10/17 11:42:18;;;;;;;2.40;1.80;;;;;;;;;;4915534;29;20087;-41
2021/10/17 11:44:44;;;;;;;1.65;1.40;;;;;;;;;;4914240;29;20102;-37
2021/10/17 11:47:09;;;;;;;1.55;1.35;;;;;;;;;;4915346;29;20051;-37
2021/10/17 11:49:35;;;;;;;2.30;1.42;;;;;;;;;;4915472;29;20034;-37
2021/10/17 11:52:04;;;;;;;2.25;1.55;;;;;;;;;;4915490;29;20040;-37
2021/10/17 11:54:39;;;;;;;3.33;1.38;;;;;;;;;;4915377;29;20076;-36
2021/10/17 11:57:05;;;;;;;2.47;0.90;;;;;;;;;;4915582;29;20655;-37
2021/10/17 11:59:32;;;;;;;2.25;1.30;;;;;;;;;;4915204;29;20031;-37
2021/10/17 12:01:58;;;;;;;1.52;1.38;;;;;;;;;;4915546;29;20048;-37
2021/10/17 12:04:40;;;;;;;2.53;2.05;;;;;;;;;;4915056;29;20020;-37
2021/10/17 12:07:06;;;;;;;3.53;1.70;;;;;;;;;;4915217;29;20042;-37
2021/10/17 12:09:33;;;;;;;2.08;1.20;;;;;;;;;;4915320;29;20388;-37
2021/10/17 12:11:59;;;;;;;1.63;1.25;;;;;;;;;;4915138;29;20487;-37
2021/10/17 12:14:26;;;;;;;1.92;1.45;;;;;;;;;;4915087;29;20787;-37
2021/10/17 12:16:55;;;;;;;1.45;1.00;;;;;;;;;;4913790;29;20024;-37
2021/10/17 12:19:25;;;;;;;1.35;1.25;;;;;;;;;;4915126;29;20036;-37
2021/10/17 12:21:51;;;;;;;2.55;1.15;;;;;;;;;;4915009;29;20040;-38
2021/10/17 12:24:22;;;;;;;2.17;1.00;;;;;;;;;;4913862;29;20035;-37
2021/10/17 12:26:54;;;;;;;1.33;1.08;;;;;;;;;;4913642;29;20044;-37
2021/10/17 12:29:21;;;;;;;1.73;1.23;;;;;;;;;;4915051;29;20036;-37
2021/10/17 12:31:59;;;;;;;1.35;1.17;;;;;;;;;;4914892;29;20056;-37
2021/10/17 12:34:44;;;;;;;1.98;1.17;;;;;;;;;;4914900;29;20044;-37
2021/10/17 12:37:10;;;;;;;1.85;0.93;;;;;;;;;;4914783;29;20032;-37
2021/10/17 12:39:37;;;;;;;2.90;1.42;;;;;;;;;;4914944;29;20021;-37
2021/10/17 12:42:03;;;;;;;1.42;1.00;;;;;;;;;;4915131;29;20117;-37
2021/10/17 12:44:29;;;;;;;2.50;1.60;;;;;;;;;;4915202;29;20020;-37
2021/10/17 12:47:04;;;;;;;1.45;1.05;;;;;;;;;;4914787;29;20570;-37
2021/10/17 12:49:37;;;;;;;1.67;1.25;;;;;;;;;;4914723;29;20040;-37
2021/10/17 12:52:02;;;;;;;1.95;1.80;;;;;;;;;;4914971;29;20028;-37
2021/10/17 12:54:29;;;;;;;1.92;1.10;;;;;;;;;;4913564;29;20079;-37
2021/10/17 12:56:56;;;;;;;1.40;0.95;;;;;;;;;;4914922;29;20127;-37
2021/10/17 12:59:24;;;;;;;2.30;1.75;;;;;;;;;;4914681;29;20127;-37
2021/10/17 13:02:06;;;;;;;1.30;0.93;;;;;;;;;;4914675;29;20043;-37
2021/10/17 13:04:47;;;;;;;1.85;1.23;;;;;;;;;;4914725;29;20092;-37
2021/10/17 13:07:13;;;;;;;3.83;1.50;;;;;;;;;;4914654;29;20028;-37
2021/10/17 13:09:40;;;;;;;2.75;1.45;;;;;;;;;;4914577;29;20562;-37
2021/10/17 13:12:24;;;;;;;0.90;0.70;;;;;;;;;;4914680;29;20060;-37
2021/10/17 13:15:09;;;;;;;1.15;1.02;;;;;;;;;;4914659;29;20539;-37
2021/10/17 13:17:36;;;;;;;1.13;0.88;;;;;;;;;;4917379;29;20379;-37
2021/10/17 13:20:03;;;;;;;1.75;1.00;;;;;;;;;;4918324;29;20024;-37
2021/10/17 13:22:29;;;;;;;1.13;1.00;;;;;;;;;;4918024;29;20092;-38
2021/10/17 13:24:55;;;;;;;2.40;1.30;;;;;;;;;;4916933;29;20024;-37
2021/10/17 13:27:20;;;;;;;1.65;0.95;;;;;;;;;;4917947;29;20056;-37
2021/10/17 13:29:46;;;;;;;1.77;1.10;;;;;;;;;;4917714;29;20016;-38
2021/10/17 13:32:11;;;;;;;1.38;1.27;;;;;;;;;;4926279;29;20220;-37
2021/10/17 13:34:37;;;;;;;2.03;1.38;;;;;;;;;;4936876;29;20046;-37
2021/10/17 13:37:03;;;;;;;1.92;1.20;;;;;;;;;;4936948;29;20055;-37
2021/10/17 13:39:28;;;;;;;1.60;1.30;;;;;;;;;;4936878;29;20019;-37
2021/10/17 13:41:54;;;;;;;2.70;1.85;;;;;;;;;;4936591;29;20034;-37
2021/10/17 13:44:19;;;;;;;1.67;1.10;;;;;;;;;;4936861;29;20026;-37
2021/10/17 13:46:45;;;;;;;1.15;1.00;;;;;;;;;;4936567;29;20467;-37
2021/10/17 13:49:10;;;;;;;1.55;1.15;;;;;;;;;;4935334;29;20016;-38
2021/10/17 13:51:36;;;;;;;1.02;0.95;;;;;;;;;;4936477;29;20044;-37
2021/10/17 13:54:02;;;;;;;1.48;1.35;;;;;;;;;;4935471;29;20039;-37
2021/10/17 13:56:27;;;;;;;1.42;1.33;;;;;;;;;;4936482;29;20031;-37
2021/10/17 13:58:53;;;;;;;1.50;1.23;;;;;;;;;;4936310;29;20067;-37
2021/10/17 14:01:19;;;;;;;1.48;1.20;;;;;;;;;;4936339;29;20062;-37
2021/10/17 14:03:45;;;;;;;2.20;1.65;;;;;;;;;;4936279;29;20027;-37
2021/10/17 14:06:10;;;;;;;2.88;1.67;;;;;;;;;;4919148;29;20035;-37
2021/10/17 14:08:36;;;;;;;1.25;1.10;;;;;;;;;;4936188;29;20026;-37
2021/10/17 14:11:02;;;;;;;2.33;1.55;;;;;;;;;;4936291;29;20071;-37
2021/10/17 14:13:28;;;;;;;1.40;1.20;;;;;;;;;;4935888;29;20517;-37
2021/10/17 14:15:53;;;;;;;2.45;1.88;;;;;;;;;;4936249;29;20036;-38
2021/10/17 14:18:19;;;;;;;1.48;1.10;;;;;;;;;;4936081;29;20475;-37
2021/10/17 14:20:45;;;;;;;2.15;1.20;;;;;;;;;;4936084;29;20115;-37
2021/10/17 14:23:11;;;;;;;1.15;0.93;;;;;;;;;;4936073;29;20071;-37
2021/10/17 14:25:42;;;;;;;1.88;1.08;;;;;;;;;;4935797;29;20487;-37
2021/10/17 14:28:10;;;;;;;3.10;1.10;;;;;;;;;;4934632;29;20066;-37
2021/10/17 14:30:38;;;;;;;1.95;1.30;;;;;;;;;;4936041;29;20422;-37
2021/10/17 14:33:04;;;;;;;2.45;1.30;;;;;;;;;;4918746;29;20079;-37
2021/10/17 14:35:33;;;;;;;2.65;1.80;;;;;;;;;;4935709;29;20063;-37
2021/10/17 14:37:58;;;;;;;3.00;1.35;;;;;;;;;;4935644;29;20039;-37
2021/10/17 14:40:23;;;;;;;3.17;1.52;;;;;;;;;;4935789;29;20423;-37
2021/10/17 14:42:49;;;;;;;1.27;1.10;;;;;;;;;;4935513;29;20027;-37
2021/10/17 14:45:15;;;;;;;1.15;1.02;;;;;;;;;;4935563;29;20027;-37
2021/10/17 14:47:40;;;;;;;1.52;1.25;;;;;;;;;;4935664;29;20032;-37